Friday, December 14, 2018, 12:03 PM EST
Back to Local

KBGM, Binghamton Regional Airport

Location: Johnson City, NY, United States Lat: 42.2
Local Time: 12:03 PM EST (17:03 GMT) Lon: -75.983
Time Zone: US/Eastern Elev: 1637 ft

Show me the last for .
Show Decoded

2018-12-14 10:53 METAR KBGM 141553Z 19010G17KT 9SM OVC006 03/02 A3031 RMK AO2 SLP280 T00330022 =
2018-12-14 10:38 METAR KBGM 141538Z 18010KT 8SM OVC006 03/02 A3032 RMK AO2 CIG 004V011 T00330022
                 =
2018-12-14 09:53 METAR KBGM 141453Z 16009KT 3SM BR OVC004 03/02 A3033 RMK AO2 SLP289 T00280022
                 51003 =
2018-12-14 09:49 METAR KBGM 141449Z 16009KT 3SM BR OVC004 03/02 A3034 RMK AO2 =
2018-12-14 08:53 METAR KBGM 141353Z 18009KT 6SM BR OVC006 02/01 A3034 RMK AO2 SLP292 T00220011 =
2018-12-14 07:53 METAR KBGM 141253Z 18007KT 7SM OVC006 02/01 A3033 RMK AO2 SLP287 T00170006 =
2018-12-14 06:53 METAR KBGM 141153Z 16008KT 7SM OVC005 01/00 A3032 RMK AO2 SLP287 70003 T00060000
                 10006 21011 55005 =
2018-12-14 06:14 METAR KBGM 141114Z 16006KT 6SM BR OVC004 00/00 A3031 RMK AO2 T00000000 =
2018-12-14 05:53 METAR KBGM 141053Z 15007KT 6SM BR OVC005 00/M01 A3031 RMK AO2 SLP284 T00001006 =
2018-12-14 05:30 METAR KBGM 141030Z AUTO 15007KT 5SM BR OVC005 00/M01 A3031 RMK AO2 T00001006 =
2018-12-14 04:53 METAR KBGM 140953Z AUTO 15006KT 5SM BR OVC004 00/M01 A3032 RMK AO2 SLP286
                 T00001006 =
2018-12-14 03:53 METAR KBGM 140853Z AUTO 15006KT 5SM BR OVC003 00/M01 A3034 RMK AO2 SLP292
                 T00001006 57005 =
2018-12-14 03:07 METAR KBGM 140807Z AUTO 15010KT 5SM BR OVC004 00/M01 A3034 RMK AO2 T00001006 =
2018-12-14 02:53 METAR KBGM 140753Z AUTO 15009KT 5SM BR OVC005 M01/M01 A3034 RMK AO2 SLP293
                 T10061011 =
2018-12-14 02:27 METAR KBGM 140727Z AUTO 14008KT 6SM BR BKN005 BKN018 M01/M02 A3034 RMK AO2
                 T10111017 =
2018-12-14 02:05 METAR KBGM 140705Z AUTO 14008KT 6SM BR SCT007 OVC019 M01/M02 A3034 RMK AO2
                 T10061017 =
2018-12-14 01:53 METAR KBGM 140653Z AUTO 15008KT 6SM BR BKN006 OVC019 M01/M01 A3035 RMK AO2 CIG
                 005V010 SLP295 T10061011 =
2018-12-14 00:53 METAR KBGM 140553Z AUTO 15007KT 7SM OVC008 M01/M02 A3035 RMK AO2 SLP297
                 T10061017 11006 21017 58001 =
2018-12-13 23:53 METAR KBGM 140453Z 15008KT 7SM OVC007 M01/M02 A3035 RMK AO2 SLP297 T10061017
                 410061033 =
2018-12-13 22:53 METAR KBGM 140353Z 15008KT 8SM OVC008 M01/M02 A3036 RMK AO2 SLP302 T10111022 =
2018-12-13 22:23 METAR KBGM 140323Z 16007KT 8SM BKN009 OVC050 M02/M03 A3036 RMK AO2 T10171028 =
2018-12-13 21:53 METAR KBGM 140253Z 14009KT 9SM FEW031 OVC050 M02/M03 A3035 RMK AO2 SLP299
                 T10171033 51007 =
2018-12-13 20:53 METAR KBGM 140153Z 14010KT 9SM OVC055 M02/M03 A3034 RMK AO2 SLP297 T10171033 =
2018-12-13 20:36 METAR KBGM 140136Z 15008KT 9SM SCT013 BKN032 OVC055 M02/M03 A3035 RMK AO2
                 T10171033 =
2018-12-13 19:53 METAR KBGM 140053Z 14008KT 9SM BKN012 OVC043 M02/M03 A3035 RMK AO2 SLP298
                 T10171033 =
2018-12-13 19:46 METAR KBGM 140046Z 15007KT 9SM BKN012 OVC043 M02/M03 A3035 RMK AO2 T10171033 =
2018-12-13 18:53 METAR KBGM 132353Z 15008KT 9SM FEW013 OVC042 M02/M03 A3033 RMK AO2 SLP292 60003
                 T10171033 11006 21022 51007 =
2018-12-13 18:50 METAR KBGM 132350Z 15008KT 9SM SCT013 OVC042 M02/M03 A3033 RMK AO2 =
2018-12-13 18:03 METAR KBGM 132303Z 16008KT 7SM BKN011 OVC032 M02/M03 A3031 RMK AO2 T10221033 =
2018-12-13 17:53 METAR KBGM 132253Z 15011KT 2SM BKN013 OVC033 M02/M03 A3031 RMK AO2 SFC VIS 7
                 SNE26 SLP286 P0001 T10221033 =
2018-12-13 16:53 METAR KBGM 132153Z 15009KT 2SM -SN BR SCT011 SCT035 OVC048 M02/M03 A3031 RMK AO2
                 SFC VIS 2 1/2 SNB47 SLP284 P0000 T10171028 =
2018-12-13 16:48 METAR KBGM 132148Z 15009KT 2 1/2SM -SN BR SCT011 BKN048 OVC055 M02/M03 A3031 RMK
                 AO2 SFC VIS 3 SNB47 P0000 =
2018-12-13 15:53 METAR KBGM 132053Z 14009KT 6SM BR OVC008 M02/M03 A3030 RMK AO2 SLP281 60002
                 T10171028 53012 =
2018-12-13 15:46 METAR KBGM 132046Z 14011KT 6SM BR OVC008 M02/M03 A3030 RMK AO2 T10171028 =
2018-12-13 15:37 METAR KBGM 132037Z 14008KT 6SM BR OVC010 M02/M03 A3029 RMK AO2 CIG 007V011
                 T10171028 =
2018-12-13 15:16 METAR KBGM 132016Z 14010KT 6SM BR BKN008 BKN014 OVC032 M02/M03 A3029 RMK AO2
                 T10171028 =
2018-12-13 14:53 METAR KBGM 131953Z 14010KT 4SM BR SCT008 BKN014 OVC034 M01/M03 A3028 RMK AO2
                 SNE30 SLP276 P0001 T10111028 =
2018-12-13 14:47 METAR KBGM 131947Z 14009KT 4SM BR FEW006 BKN020 OVC034 M01/M03 A3028 RMK AO2
                 SNE30 P0001 =
2018-12-13 14:24 METAR KBGM 131924Z 14010KT 3/4SM -SN BR FEW005 SCT010 OVC036 M02/M02 A3028 RMK
                 AO2 SFC VIS 1 3/4 P0001 T10171022 =
2018-12-13 14:09 METAR KBGM 131909Z 14010KT 1/2SM SN FZFG FEW005 OVC012 M02/M02 A3027 RMK AO2 TWR
                 VIS 3/4 P0001 T10171022 =
2018-12-13 14:00 METAR KBGM 131900Z 14009KT 1/4SM SN FZFG VV012 M02/M03 A3027 RMK AO2 TWR VIS 3/4
                 P0000 T10171028 =
2018-12-13 13:53 METAR KBGM 131853Z 15010KT 1/2SM SN FZFG BKN014 OVC019 M01/M03 A3027 RMK AO2 TWR
                 VIS 3/4 SNB21 SLP271 P0001 T10111033 =
2018-12-13 13:27 METAR KBGM 131827Z 14007KT 1 3/4SM -SN OVC017 M01/M04 A3026 RMK AO2 TWR VIS 2
                 1/2 SNB21 P0000 T10111039 =
2018-12-13 12:53 METAR KBGM 131753Z 17008KT 8SM OVC018 M01/M04 A3026 RMK AO2 SLP268 T10061039
                 11006 21033 51004 =

Support USWX by starting your Amazon purchase here.